Time;durP1;ratioP1;P1;durP2;ratioP2;P2;SDS_P1;SDS_P2;PMS_P1;PMS_P2;Temp;Humidity;BMP_temperature;BMP_pressure;BME280_temperature;BME280_humidity;BME280_pressure;Samples;Min_cycle;Max_cycle;Signal;HPM_P1;HPM_P2
2023/02/05 00:01:13;;;;;;;3.70;3.10;;;;;;;4.79;61.49;99419.25;5097703;28;20505;-80
2023/02/05 00:03:38;;;;;;;3.43;3.13;;;;;;;4.23;61.67;99333.84;5097807;28;20058;-80
2023/02/05 00:06:04;;;;;;;3.10;2.80;;;;;;;4.82;61.99;99437.28;5096661;28;20028;-79
2023/02/05 00:08:30;;;;;;;2.97;2.77;;;;;;;3.99;62.11;99315.25;5096302;28;20028;-80
2023/02/05 00:10:56;;;;;;;2.80;2.60;;;;;;;4.74;62.10;99442.41;5094291;28;20515;-80
2023/02/05 00:13:22;;;;;;;2.87;2.40;;;;;;;4.18;62.77;99383.13;5094097;28;20067;-79
2023/02/05 00:15:47;;;;;;;3.87;2.50;;;;;;;4.19;62.73;99389.97;5092812;28;20047;-79
2023/02/05 00:18:12;;;;;;;3.10;2.23;;;;;;;4.43;62.78;99429.53;5094053;28;20095;-80
2023/02/05 00:20:38;;;;;;;3.10;2.37;;;;;;;4.08;63.38;99419.72;5093857;28;20048;-80
2023/02/05 00:23:04;;;;;;;10.27;6.20;;;;;;;3.91;63.25;99386.47;5094273;28;20074;-79
2023/02/05 00:25:29;;;;;;;8.67;3.37;;;;;;;4.24;63.42;99439.22;5094989;28;20089;-80
2023/02/05 00:27:54;;;;;;;3.60;2.50;;;;;;;3.42;64.07;99349.09;5095030;28;20032;-79
2023/02/05 00:30:20;;;;;;;2.50;2.30;;;;;;;3.61;63.96;99390.03;5094007;28;20035;-80
2023/02/05 00:32:45;;;;;;;2.33;2.13;;;;;;;3.61;64.82;99399.66;5095243;28;20055;-80
2023/02/05 00:35:11;;;;;;;2.50;2.30;;;;;;;3.40;65.58;99392.75;5094840;28;20100;-80
2023/02/05 00:37:36;;;;;;;2.23;2.00;;;;;;;3.98;64.96;99475.53;5094977;28;20080;-80
2023/02/05 00:40:02;;;;;;;2.20;2.00;;;;;;;3.32;64.89;99358.69;5094014;28;20485;-80
2023/02/05 00:42:28;;;;;;;1.80;1.70;;;;;;;3.85;64.89;99451.47;5093547;28;20062;-80
2023/02/05 00:44:53;;;;;;;2.53;1.97;;;;;;;3.39;64.42;99383.28;5092357;28;20480;-80
2023/02/05 00:47:18;;;;;;;2.33;2.10;;;;;;;3.79;64.70;99464.13;5092379;28;20059;-80
2023/02/05 00:49:44;;;;;;;2.10;1.90;;;;;;;3.36;64.42;99391.38;5093651;28;20076;-80
2023/02/05 00:52:09;;;;;;;2.37;1.97;;;;;;;3.60;64.62;99424.09;5092457;28;20508;-80
2023/02/05 00:54:35;;;;;;;2.40;2.20;;;;;;;3.42;63.92;99396.06;5094095;28;20028;-80
2023/02/05 00:57:00;;;;;;;1.77;1.67;;;;;;;3.98;63.91;99475.53;5094067;28;20032;-80
2023/02/05 00:59:26;;;;;;;1.90;1.70;;;;;;;3.67;63.55;99443.47;5094228;28;20078;-80
2023/02/05 01:01:51;;;;;;;2.17;1.90;;;;;;;3.81;64.07;99470.03;5092292;28;20565;-80
2023/02/05 01:04:17;;;;;;;2.13;1.70;;;;;;;3.39;64.06;99388.50;5093904;28;20031;-80
2023/02/05 01:06:42;;;;;;;2.77;2.00;;;;;;;3.74;63.85;99442.81;5094319;28;20408;-80
2023/02/05 01:09:07;;;;;;;2.00;1.90;;;;;;;3.87;63.95;99470.44;5094948;28;20024;-80
2023/02/05 01:11:33;;;;;;;2.23;2.03;;;;;;;3.68;63.62;99455.56;5094721;28;20024;-80
2023/02/05 01:13:58;;;;;;;2.20;1.80;;;;;;;3.35;63.64;99400.19;5099280;28;20024;-80
2023/02/05 01:16:24;;;;;;;2.50;2.03;;;;;;;4.00;63.61;99511.00;5108835;28;20028;-80
2023/02/05 01:18:49;;;;;;;2.30;2.00;;;;;;;4.04;63.65;99516.78;5100520;28;20120;-80
2023/02/05 01:21:15;;;;;;;1.93;1.73;;;;;;;3.92;64.25;99521.31;5093318;28;20432;-80
2023/02/05 01:23:41;;;;;;;2.23;2.03;;;;;;;3.24;64.07;99428.19;5094135;28;20034;-80
2023/02/05 01:26:06;;;;;;;2.40;2.20;;;;;;;3.49;64.06;99475.47;5093004;28;20489;-80
2023/02/05 01:28:31;;;;;;;2.30;2.00;;;;;;;3.04;64.71;99443.78;5092971;28;20421;-80
2023/02/05 01:30:57;;;;;;;2.30;2.10;;;;;;;3.76;64.24;99527.06;5092709;28;20488;-80
2023/02/05 01:33:22;;;;;;;2.17;1.97;;;;;;;3.17;64.57;99443.53;5092739;28;20028;-80
2023/02/05 01:35:48;;;;;;;3.40;2.60;;;;;;;3.19;64.17;99431.19;5092830;28;20042;-80
2023/02/05 01:38:14;;;;;;;2.00;1.90;;;;;;;3.77;63.81;99525.28;5095175;28;20027;-80
2023/02/05 01:40:40;;;;;;;1.97;1.87;;;;;;;3.42;63.67;99453.47;5100949;28;20028;-80
2023/02/05 01:43:16;;;;;;;2.20;2.00;;;;;;;3.84;63.17;99531.63;5094840;28;20103;-80
2023/02/05 01:46:05;;;;;;;1.97;1.87;;;;;;;3.63;62.89;99517.81;5094144;28;20028;-80
2023/02/05 01:48:42;;;;;;;1.80;1.70;;;;;;;3.30;62.88;99458.94;5095634;28;20032;-80
2023/02/05 01:51:11;;;;;;;2.43;1.80;;;;;;;3.14;62.59;99426.38;5095665;28;20050;-80
2023/02/05 01:53:38;;;;;;;1.63;1.53;;;;;;;3.20;62.80;99435.44;5094572;28;20028;-80
2023/02/05 01:56:16;;;;;;;1.80;1.60;;;;;;;3.84;62.32;99523.78;5092267;28;21012;-80
2023/02/05 01:58:47;;;;;;;2.30;1.80;;;;;;;3.91;62.23;99530.13;5092077;28;20051;-79
2023/02/05 02:01:12;;;;;;;1.90;1.80;;;;;;;2.87;62.08;99393.03;5092192;28;20020;-80
2023/02/05 02:03:39;;;;;;;2.50;2.10;;;;;;;3.40;62.23;99488.50;5092055;28;20293;-80
2023/02/05 02:06:05;;;;;;;2.43;2.10;;;;;;;3.67;62.49;99520.03;5091928;28;20035;-80
2023/02/05 02:08:32;;;;;;;2.10;2.00;;;;;;;3.35;62.17;99461.97;5091800;28;20409;-80
2023/02/05 02:11:01;;;;;;;1.97;1.80;;;;;;;3.77;61.98;99527.91;5092082;28;20523;-79
2023/02/05 02:13:28;;;;;;;2.73;1.93;;;;;;;3.31;61.88;99452.78;5092599;28;20024;-80
2023/02/05 02:15:55;;;;;;;1.80;1.70;;;;;;;3.81;61.59;99530.09;5092196;28;20051;-80
2023/02/05 02:18:27;;;;;;;2.30;2.10;;;;;;;3.23;61.62;99452.63;5092436;28;20468;-79
2023/02/05 02:21:08;;;;;;;3.30;2.13;;;;;;;3.62;61.90;99542.25;5091186;28;20048;-79
2023/02/05 02:24:02;;;;;;;2.00;1.83;;;;;;;3.39;62.40;99516.38;5092057;28;20031;-80
2023/02/05 02:26:31;;;;;;;2.00;1.80;;;;;;;3.47;62.68;99540.03;5091498;28;20097;-80
2023/02/05 02:29:02;;;;;;;2.77;2.30;;;;;;;3.08;62.88;99492.13;5091289;28;20028;-80
2023/02/05 02:31:49;;;;;;;2.15;1.95;;;;;;;2.77;63.19;99440.91;5091644;28;20028;-80
2023/02/05 02:34:30;;;;;;;2.40;2.13;;;;;;;3.19;63.48;99520.72;5091545;28;20035;-79
2023/02/05 02:37:05;;;;;;;3.17;2.83;;;;;;;3.22;63.26;99508.34;5091639;28;20020;-80
2023/02/05 02:39:53;;;;;;;2.77;2.50;;;;;;;3.39;63.55;99544.25;5093764;28;20020;-80
2023/02/05 02:42:27;;;;;;;4.73;3.13;;;;;;;3.37;64.35;99556.63;5094611;28;20037;-80
2023/02/05 02:44:59;;;;;;;4.23;2.60;;;;;;;2.75;64.37;99479.31;5092578;28;20173;-80
2023/02/05 02:47:30;;;;;;;3.73;2.47;;;;;;;3.16;64.30;99549.66;5094239;28;20098;-80
2023/02/05 02:50:01;;;;;;;5.03;3.22;;;;;;;3.26;65.88;99574.97;5094330;28;20269;-79
2023/02/05 02:52:32;;;;;;;3.05;2.78;;;;;;;3.17;65.35;99564.38;5094939;28;20035;-80
2023/02/05 02:55:04;;;;;;;3.70;3.40;;;;;;;2.47;65.26;99455.56;5091793;28;20032;-80
2023/02/05 02:57:32;;;;;;;4.68;3.10;;;;;;;3.06;65.41;99538.38;5091603;28;20035;-79
2023/02/05 03:00:00;;;;;;;3.17;2.87;;;;;;;3.13;65.82;99552.53;5091585;28;20036;-80
2023/02/05 03:02:31;;;;;;;4.00;3.23;;;;;;;2.48;65.72;99438.16;5091509;28;20105;-80
2023/02/05 03:05:02;;;;;;;2.87;2.67;;;;;;;2.43;66.06;99474.19;5091654;28;20028;-80
2023/02/05 03:07:33;;;;;;;2.93;2.73;;;;;;;3.01;66.72;99571.84;5091685;28;20055;-80
2023/02/05 03:10:15;;;;;;;3.08;2.85;;;;;;;2.97;66.72;99574.81;5092458;28;20133;-80
2023/02/05 03:12:41;;;;;;;;;;;;;;;2.75;68.39;99575.78;5092630;28;20416;-80
2023/02/05 03:15:07;;;;;;;3.33;3.00;;;;;;;2.36;67.00;99505.16;5090750;28;20021;-80
2023/02/05 03:17:33;;;;;;;3.30;3.10;;;;;;;2.06;67.31;99450.34;5092404;28;20024;-80
2023/02/05 03:20:06;;;;;;;3.37;3.07;;;;;;;2.91;66.70;99593.56;5090547;28;20052;-80
2023/02/05 03:22:32;;;;;;;3.97;3.30;;;;;;;2.92;66.87;99595.22;5092542;28;20024;-80
2023/02/05 03:24:57;;;;;;;3.83;3.30;;;;;;;2.54;66.88;99550.53;5091906;28;20035;-80
2023/02/05 03:27:23;;;;;;;3.40;3.10;;;;;;;2.67;67.11;99567.75;5093859;28;20066;-80
2023/02/05 03:29:49;;;;;;;3.10;2.80;;;;;;;2.65;67.24;99586.13;5094295;28;20090;-81
2023/02/05 03:32:49;;;;;;;3.00;2.70;;;;;;;2.14;68.11;99526.06;5094563;28;20020;-80
2023/02/05 03:35:25;;;;;;;3.80;3.50;;;;;;;2.77;67.74;99608.59;5093311;28;20020;-80
2023/02/05 03:38:19;;;;;;;4.13;3.33;;;;;;;2.71;67.77;99595.22;5093918;28;20409;-80
2023/02/05 03:40:57;;;;;;;4.63;3.47;;;;;;;2.41;67.58;99570.72;5093719;28;20024;-80
2023/02/05 03:43:38;;;;;;;3.00;2.80;;;;;;;2.91;67.71;99635.28;5096152;28;20032;-80
2023/02/05 03:46:26;;;;;;;3.70;3.40;;;;;;;2.75;67.54;99609.66;5096781;28;20024;-80
2023/02/05 03:49:00;;;;;;;3.63;3.33;;;;;;;2.89;68.15;99632.81;5095706;28;20032;-80
2023/02/05 03:51:47;;;;;;;4.63;3.60;;;;;;;2.38;67.97;99564.94;5097335;28;20038;-80
2023/02/05 03:54:33;;;;;;;4.67;4.17;;;;;;;2.82;68.15;99642.09;5096985;28;20035;-80
2023/02/05 03:57:09;;;;;;;4.40;3.37;;;;;;;2.77;68.07;99647.69;5097515;28;20588;-80
2023/02/05 03:59:36;;;;;;;5.13;3.53;;;;;;;2.63;68.10;99649.78;5097487;28;20508;-80
2023/02/05 04:02:05;;;;;;;4.33;3.93;;;;;;;2.67;67.91;99641.56;5099270;28;20024;-79
2023/02/05 04:04:31;;;;;;;4.60;4.00;;;;;;;2.46;68.06;99619.88;5104735;28;20472;-80
2023/02/05 04:06:56;;;;;;;5.67;4.67;;;;;;;1.90;67.87;99529.72;5104980;28;20042;-79
2023/02/05 04:09:21;;;;;;;4.70;4.20;;;;;;;2.70;67.84;99656.97;5096867;28;20028;-79
2023/02/05 04:11:47;;;;;;;4.10;3.70;;;;;;;2.14;67.65;99580.75;5094237;28;20451;-80
2023/02/05 04:14:13;;;;;;;5.83;5.13;;;;;;;2.41;67.72;99582.94;5094183;28;20089;-79
2023/02/05 04:16:38;;;;;;;4.57;4.07;;;;;;;2.56;67.75;99636.41;5093286;28;20020;-80
2023/02/05 04:19:04;;;;;;;5.50;5.00;;;;;;;2.73;67.72;99668.94;5094075;28;20058;-79
2023/02/05 04:21:29;;;;;;;6.23;4.77;;;;;;;2.75;67.93;99667.84;5093683;28;20509;-79
2023/02/05 04:23:55;;;;;;;4.60;4.20;;;;;;;2.38;67.83;99602.25;5096244;28;20035;-79
2023/02/05 04:26:20;;;;;;;4.37;3.97;;;;;;;2.02;67.41;99555.72;5099710;28;20106;-79
2023/02/05 04:28:46;;;;;;;4.73;4.33;;;;;;;2.09;67.90;99573.31;5104710;28;20028;-79
2023/02/05 04:31:12;;;;;;;5.73;5.13;;;;;;;2.81;67.30;99683.00;5100740;28;20036;-79
2023/02/05 04:33:38;;;;;;;4.93;4.43;;;;;;;2.31;67.77;99611.53;5095949;28;20026;-79
2023/02/05 04:36:04;;;;;;;4.23;3.50;;;;;;;2.85;67.61;99688.78;5094772;28;20028;-80
2023/02/05 04:38:29;;;;;;;5.17;3.97;;;;;;;2.47;67.54;99645.81;5095649;28;20575;-79
2023/02/05 04:40:55;;;;;;;4.77;3.80;;;;;;;2.34;67.57;99618.25;5093546;28;20036;-80
2023/02/05 04:43:21;;;;;;;3.83;3.43;;;;;;;2.84;67.59;99698.38;5092165;28;20024;-80
2023/02/05 04:45:46;;;;;;;4.00;3.40;;;;;;;2.68;67.45;99668.47;5092412;28;20484;-80
2023/02/05 04:48:12;;;;;;;4.07;3.67;;;;;;;2.03;68.09;99570.38;5092336;28;20090;-80
2023/02/05 04:50:37;;;;;;;3.43;3.13;;;;;;;2.62;67.57;99666.38;5093782;28;20032;-80
2023/02/05 04:53:03;;;;;;;3.20;2.90;;;;;;;2.81;67.88;99695.19;5092900;28;20548;-80
2023/02/05 04:55:30;;;;;;;3.33;3.03;;;;;;;2.81;67.79;99700.41;5093853;28;20032;-80
2023/02/05 04:57:56;;;;;;;3.50;2.90;;;;;;;2.69;67.66;99677.94;5093636;28;20054;-81
2023/02/05 05:00:21;;;;;;;3.47;3.10;;;;;;;2.04;67.38;99561.63;5094152;28;20102;-81
2023/02/05 05:02:47;;;;;;;3.10;2.87;;;;;;;2.76;67.17;99697.34;5093963;28;20564;-80
2023/02/05 05:05:12;;;;;;;3.70;3.40;;;;;;;2.40;67.27;99654.25;5093983;28;20024;-80
2023/02/05 05:07:38;;;;;;;3.90;3.37;;;;;;;2.62;67.15;99692.44;5093725;28;20436;-80
2023/02/05 05:10:06;;;;;;;3.77;3.37;;;;;;;2.29;67.09;99644.69;5092252;28;20500;-81
2023/02/05 05:12:32;;;;;;;3.80;3.50;;;;;;;2.46;67.53;99704.09;5093395;28;20062;-80
2023/02/05 05:14:58;;;;;;;3.90;3.60;;;;;;;2.29;67.92;99665.53;5092158;28;20051;-81
2023/02/05 05:17:23;;;;;;;5.13;4.63;;;;;;;1.47;67.49;99542.69;5093164;28;20489;-81
2023/02/05 05:19:48;;;;;;;5.10;4.60;;;;;;;2.23;67.71;99676.44;5093219;28;20043;-80
2023/02/05 05:22:14;;;;;;;5.07;4.57;;;;;;;0.64;68.06;99433.84;5092666;28;20028;-80
2023/02/05 05:24:39;;;;;;;5.33;4.83;;;;;;;2.58;67.93;99745.75;5092699;28;20034;-80
2023/02/05 05:27:05;;;;;;;7.53;5.07;;;;;;;2.59;67.80;99750.03;5092917;28;20024;-80
2023/02/05 05:29:30;;;;;;;4.87;4.40;;;;;;;1.81;67.59;99623.34;5093283;28;20023;-80
2023/02/05 05:31:56;;;;;;;6.40;4.60;;;;;;;2.17;67.51;99685.53;5092969;28;20442;-80
2023/02/05 05:34:21;;;;;;;4.30;3.90;;;;;;;1.95;67.58;99666.50;5093056;28;20095;-80
2023/02/05 05:36:47;;;;;;;4.67;4.27;;;;;;;2.04;67.59;99668.38;5091375;28;20027;-80
2023/02/05 05:44:42;;;;;;;5.03;4.50;;;;;;;2.49;67.66;99752.53;5092935;28;20516;-81
2023/02/05 05:47:07;;;;;;;5.30;4.43;;;;;;;2.16;67.21;99683.88;5091449;28;20024;-81
2023/02/05 05:49:33;;;;;;;5.13;4.63;;;;;;;2.73;67.20;99762.78;5092701;28;20035;-81
2023/02/05 05:51:58;;;;;;;7.10;5.03;;;;;;;2.44;66.89;99723.41;5092939;28;20051;-81
2023/02/05 05:54:23;;;;;;;5.33;4.83;;;;;;;2.46;66.28;99724.94;5094902;28;20024;-80
2023/02/05 05:56:49;;;;;;;5.93;5.00;;;;;;;2.87;66.07;99786.78;5095769;28;20020;-80
2023/02/05 05:59:15;;;;;;;5.90;5.30;;;;;;;2.83;66.03;99794.97;5095671;28;20538;-80
2023/02/05 06:01:40;;;;;;;5.10;4.60;;;;;;;2.17;65.26;99688.13;5094959;28;20035;-80
2023/02/05 06:04:06;;;;;;;5.13;4.63;;;;;;;2.74;64.02;99800.94;5094884;28;20111;-80
2023/02/05 06:06:31;;;;;;;6.33;4.43;;;;;;;2.75;62.89;99818.22;5096186;28;20035;-80
2023/02/05 06:08:56;;;;;;;5.77;5.10;;;;;;;2.06;61.98;99708.16;5094988;28;20040;-80
2023/02/05 06:11:22;;;;;;;5.03;4.53;;;;;;;2.12;60.05;99736.31;5094586;28;20035;-80
2023/02/05 06:13:47;;;;;;;4.33;3.93;;;;;;;2.47;61.72;99804.75;5092741;28;20103;-79
2023/02/05 06:16:13;;;;;;;6.10;4.50;;;;;;;2.20;60.66;99784.28;5094502;28;20078;-79
2023/02/05 06:18:38;;;;;;;6.73;5.00;;;;;;;2.07;60.95;99743.66;5094646;28;20617;-79
2023/02/05 06:21:04;;;;;;;6.13;5.13;;;;;;;2.60;61.04;99824.66;5094636;28;20054;-79
2023/02/05 06:23:31;;;;;;;6.20;4.80;;;;;;;2.64;60.49;99829.50;5094534;28;20032;-80
2023/02/05 06:25:57;;;;;;;6.67;4.77;;;;;;;1.91;59.99;99731.84;5093962;28;20149;-79
2023/02/05 06:28:22;;;;;;;6.03;4.70;;;;;;;2.14;60.12;99757.88;5093984;28;20026;-80
2023/02/05 06:30:48;;;;;;;7.30;5.60;;;;;;;2.08;59.58;99755.75;5095291;28;20020;-79
2023/02/05 06:33:13;;;;;;;5.23;4.70;;;;;;;2.22;59.56;99784.16;5095070;28;20035;-80
2023/02/05 06:35:40;;;;;;;4.70;4.30;;;;;;;2.74;59.65;99855.69;5095401;28;20031;-80
2023/02/05 06:38:05;;;;;;;4.93;4.20;;;;;;;2.65;58.59;99840.75;5095363;28;20088;-80
2023/02/05 06:40:31;;;;;;;5.80;4.90;;;;;;;2.22;58.46;99784.16;5094389;28;20020;-80
2023/02/05 06:42:56;;;;;;;5.47;4.87;;;;;;;2.41;58.71;99835.69;5095300;28;20036;-79
2023/02/05 06:45:22;;;;;;;5.50;4.90;;;;;;;2.73;58.72;99873.09;5096089;28;20032;-79
2023/02/05 06:47:47;;;;;;;5.07;4.03;;;;;;;2.07;58.03;99764.50;5095979;28;20023;-79
2023/02/05 06:50:13;;;;;;;6.10;5.00;;;;;;;1.89;58.07;99751.13;5096324;28;20030;-80
2023/02/05 06:52:38;;;;;;;5.90;4.87;;;;;;;2.55;58.26;99841.47;5096636;28;20063;-80
2023/02/05 06:55:04;;;;;;;4.97;4.47;;;;;;;2.45;57.61;99830.13;5092223;28;20447;-80
2023/02/05 06:57:30;;;;;;;6.37;4.57;;;;;;;2.58;57.65;99839.59;5091624;28;20028;-80
2023/02/05 06:59:56;;;;;;;6.57;5.50;;;;;;;2.51;57.69;99853.09;5091719;28;20047;-80
2023/02/05 07:02:22;;;;;;;6.37;4.90;;;;;;;2.09;57.01;99773.84;5091602;28;20028;-80
2023/02/05 07:04:47;;;;;;;4.13;3.73;;;;;;;1.92;56.61;99753.50;5092187;28;20039;-81
2023/02/05 07:07:14;;;;;;;6.10;4.17;;;;;;;2.80;56.39;99917.78;5092104;28;20063;-80
2023/02/05 07:09:40;;;;;;;4.67;4.20;;;;;;;2.13;56.54;99774.44;5095276;28;20028;-80
2023/02/05 07:12:06;;;;;;;6.13;5.40;;;;;;;2.63;56.47;99853.09;5095844;28;20019;-80
2023/02/05 07:14:35;;;;;;;6.77;4.87;;;;;;;3.01;56.09;99907.47;5097076;28;20502;-80
2023/02/05 07:17:00;;;;;;;5.77;4.10;;;;;;;2.52;56.33;99833.06;5099392;28;20036;-81
2023/02/05 07:19:25;;;;;;;5.80;4.87;;;;;;;3.27;56.36;99924.50;5102601;28;20156;-80
2023/02/05 07:21:51;;;;;;;7.40;4.73;;;;;;;2.49;55.61;99805.47;5099230;28;20024;-79
2023/02/05 07:24:16;;;;;;;5.90;5.10;;;;;;;2.43;55.46;99803.34;5095761;28;20024;-80
2023/02/05 07:26:44;;;;;;;7.93;5.47;;;;;;;2.29;55.31;99806.19;5095252;28;20028;-80
2023/02/05 07:29:09;;;;;;;5.60;4.70;;;;;;;3.11;55.29;99932.72;5093963;28;20024;-80
2023/02/05 07:31:35;;;;;;;5.83;5.10;;;;;;;2.56;54.67;99821.47;5095109;28;20398;-80
2023/02/05 07:34:00;;;;;;;6.13;5.03;;;;;;;3.22;54.73;99946.69;5093792;28;20069;-80
2023/02/05 07:36:26;;;;;;;4.67;4.17;;;;;;;2.74;55.17;99881.75;5094894;28;20038;-80
2023/02/05 07:38:51;;;;;;;5.97;4.77;;;;;;;2.78;55.13;99888.38;5096156;28;20610;-80
2023/02/05 07:41:17;;;;;;;5.10;4.60;;;;;;;2.62;54.61;99862.69;5096151;28;20027;-81
2023/02/05 07:43:43;;;;;;;5.30;4.50;;;;;;;3.21;54.72;99961.50;5096169;28;20043;-80
2023/02/05 07:46:11;;;;;;;5.10;4.60;;;;;;;2.96;54.86;99933.88;5097270;28;20130;-80
2023/02/05 07:48:37;;;;;;;5.57;4.80;;;;;;;3.21;54.67;99978.94;5097258;28;20020;-80
2023/02/05 07:51:03;;;;;;;5.27;4.50;;;;;;;2.48;53.76;99879.41;5097765;28;20515;-80
2023/02/05 07:53:29;;;;;;;6.77;4.70;;;;;;;2.87;53.96;99969.34;5096017;28;20048;-80
2023/02/05 07:55:54;;;;;;;4.53;4.13;;;;;;;2.57;53.76;99929.97;5095656;28;20483;-80
2023/02/05 07:58:20;;;;;;;4.13;3.73;;;;;;;2.19;53.14;99873.78;5096961;28;20028;-80
2023/02/05 08:00:45;;;;;;;5.50;4.70;;;;;;;2.17;54.12;99891.31;5096993;28;20027;-80
2023/02/05 08:03:11;;;;;;;5.47;4.73;;;;;;;2.42;53.74;99934.59;5096591;28;20111;-80
2023/02/05 08:05:37;;;;;;;6.40;5.47;;;;;;;2.77;54.08;99989.25;5097130;28;20067;-80
2023/02/05 08:08:03;;;;;;;7.50;5.50;;;;;;;1.69;53.81;99833.34;5096798;28;20020;-80
2023/02/05 08:10:28;;;;;;;6.07;4.97;;;;;;;2.12;54.14;99919.47;5097650;28;20032;-80
2023/02/05 08:12:53;;;;;;;5.30;4.70;;;;;;;2.50;53.78;99970.50;5097572;28;20016;-80
2023/02/05 08:15:19;;;;;;;4.47;4.07;;;;;;;2.35;52.98;99943.00;5097081;28;20024;-79
2023/02/05 08:17:44;;;;;;;3.80;3.50;;;;;;;2.69;52.89;100015.06;5097755;28;20132;-79
2023/02/05 08:20:10;;;;;;;5.13;4.63;;;;;;;2.77;53.05;100011.88;5095756;28;20040;-80
2023/02/05 08:22:38;;;;;;;5.87;4.97;;;;;;;2.80;52.82;100011.66;5097142;28;20028;-79
2023/02/05 08:25:06;;;;;;;5.40;3.87;;;;;;;2.73;52.92;100016.50;5096568;28;20031;-80
2023/02/05 08:27:33;;;;;;;4.07;3.67;;;;;;;2.85;52.72;100022.56;5093968;28;20028;-80
2023/02/05 08:29:58;;;;;;;4.77;4.27;;;;;;;2.49;52.66;99968.84;5096262;28;20416;-80
2023/02/05 08:32:24;;;;;;;4.47;4.00;;;;;;;2.19;52.53;99925.06;5096967;28;20024;-80
2023/02/05 08:34:49;;;;;;;5.20;4.63;;;;;;;2.59;52.41;99967.19;5096641;28;20028;-80
2023/02/05 08:37:15;;;;;;;6.13;4.93;;;;;;;3.01;53.00;100030.91;5095178;28;20032;-79
2023/02/05 08:39:40;;;;;;;6.00;4.00;;;;;;;3.01;52.38;100033.50;5096641;28;20028;-80
2023/02/05 08:42:06;;;;;;;5.87;5.27;;;;;;;2.98;52.20;100002.44;5098836;28;20085;-80
2023/02/05 08:44:31;;;;;;;6.03;4.60;;;;;;;2.57;52.20;99932.59;5096981;28;20028;-80
2023/02/05 08:46:56;;;;;;;5.10;4.60;;;;;;;2.81;51.72;99984.63;5096955;28;20427;-80
2023/02/05 08:49:22;;;;;;;8.10;5.70;;;;;;;2.99;52.30;100011.09;5098008;28;20035;-80
2023/02/05 08:51:47;;;;;;;7.87;5.37;;;;;;;3.08;52.73;100015.59;5097921;28;20035;-80
2023/02/05 08:54:14;;;;;;;6.80;4.67;;;;;;;3.13;52.37;100022.13;5098266;28;20031;-80
2023/02/05 08:56:41;;;;;;;5.93;5.03;;;;;;;3.31;52.64;100034.69;5096697;28;20023;-80
2023/02/05 08:59:07;;;;;;;5.83;4.87;;;;;;;3.06;52.57;99994.03;5096399;28;20033;-80
2023/02/05 09:01:36;;;;;;;6.83;5.47;;;;;;;3.41;52.40;100043.47;5098098;28;20032;-80
2023/02/05 09:04:03;;;;;;;5.87;5.20;;;;;;;3.38;52.67;100054.13;5098592;28;20024;-80
2023/02/05 09:06:28;;;;;;;5.80;4.80;;;;;;;3.32;52.75;100047.63;5098566;28;20024;-81
2023/02/05 09:08:54;;;;;;;5.20;4.30;;;;;;;3.42;52.43;100047.72;5094985;28;20151;-80
2023/02/05 09:11:20;;;;;;;5.57;4.40;;;;;;;2.79;52.15;99952.63;5093112;28;20099;-80
2023/02/05 09:13:46;;;;;;;5.20;4.60;;;;;;;2.96;51.95;99967.78;5092992;28;20024;-80
2023/02/05 09:16:11;;;;;;;5.67;5.03;;;;;;;3.31;51.86;100005.97;5092924;28;20036;-80
2023/02/05 09:18:37;;;;;;;5.57;4.40;;;;;;;3.54;51.42;100035.50;5092895;28;20736;-80
2023/02/05 09:21:08;;;;;;;4.80;4.30;;;;;;;2.61;51.26;99892.31;5091305;28;20043;-80
2023/02/05 09:23:34;;;;;;;4.43;3.97;;;;;;;3.22;51.34;99984.03;5092749;28;20039;-80
2023/02/05 09:26:00;;;;;;;5.47;4.97;;;;;;;3.28;51.35;99990.56;5091606;28;20027;-81
2023/02/05 09:28:25;;;;;;;5.63;4.70;;;;;;;3.47;51.43;100024.69;5092594;28;20106;-80
2023/02/05 09:30:51;;;;;;;4.93;4.23;;;;;;;3.15;51.39;99965.44;5091412;28;20024;-80
2023/02/05 09:33:17;;;;;;;5.23;4.17;;;;;;;3.29;50.88;100029.59;5091662;28;20028;-80
2023/02/05 09:35:43;;;;;;;5.10;4.43;;;;;;;3.56;51.64;100046.63;5092287;28;20031;-81
2023/02/05 09:38:12;;;;;;;5.97;4.83;;;;;;;3.62;51.67;100054.81;5093927;28;20023;-80
2023/02/05 09:40:49;;;;;;;6.10;4.30;;;;;;;3.57;51.00;100046.53;5100837;28;20039;-82
2023/02/05 09:43:44;;;;;;;6.00;4.87;;;;;;;3.66;51.57;100055.41;5100875;28;20032;-82
2023/02/05 09:46:13;;;;;;;4.83;4.33;;;;;;;3.07;51.31;99933.91;5100095;28;20043;-80
2023/02/05 09:48:48;;;;;;;5.93;4.43;;;;;;;3.31;50.88;99969.44;5102041;28;20028;-80
2023/02/05 09:51:19;;;;;;;4.87;3.80;;;;;;;3.79;51.08;100054.34;5102921;28;20055;-81
2023/02/05 09:53:52;;;;;;;5.35;4.45;;;;;;;3.54;51.28;100023.25;5094588;28;20454;-80
2023/02/05 09:56:17;;;;;;;5.90;4.80;;;;;;;3.77;50.79;100065.88;5096099;28;20032;-80
2023/02/05 09:58:49;;;;;;;5.43;4.70;;;;;;;3.73;50.30;100057.44;5096557;28;20657;-80
2023/02/05 10:01:24;;;;;;;5.18;4.30;;;;;;;3.63;50.30;100071.31;5097248;28;20138;-80
2023/02/05 10:03:55;;;;;;;6.97;5.60;;;;;;;3.69;50.93;100068.22;5097653;28;20035;-80
2023/02/05 10:06:39;;;;;;;5.63;4.80;;;;;;;3.69;50.77;100066.44;5097466;28;20023;-80
2023/02/05 10:09:20;;;;;;;9.27;6.03;;;;;;;3.54;51.21;100057.22;5094324;28;20485;-80
2023/02/05 10:12:12;;;;;;;6.70;4.90;;;;;;;3.01;50.81;99991.78;5092079;28;20552;-79
2023/02/05 10:14:40;;;;;;;;;;;;;;;3.16;50.63;100065.41;5092199;28;20496;-80
2023/02/05 10:17:23;;;;;;;5.40;4.83;;;;;;;2.62;51.31;99955.69;5091818;28;19908;-80
2023/02/05 10:20:10;;;;;;;6.00;5.03;;;;;;;3.27;49.95;100067.19;5091573;28;20056;-80
2023/02/05 10:22:42;;;;;;;5.80;5.13;;;;;;;3.07;51.01;100038.25;5091928;28;20064;-79
2023/02/05 10:25:37;;;;;;;7.78;5.57;;;;;;;3.35;51.25;100064.81;5090737;28;20020;-80
2023/02/05 10:28:25;;;;;;;6.50;4.80;;;;;;;3.38;51.07;100065.41;5090348;28;20617;-80
2023/02/05 10:31:00;;;;;;;6.43;4.80;;;;;;;3.38;50.63;100065.41;5091647;28;20020;-79
2023/02/05 10:33:37;;;;;;;6.67;4.60;;;;;;;3.39;50.72;100066.25;5091451;28;20095;-80
2023/02/05 10:36:05;;;;;;;5.23;4.57;;;;;;;3.23;50.83;100047.50;5091680;28;20035;-80
2023/02/05 10:38:37;;;;;;;5.80;4.60;;;;;;;3.41;51.15;100074.78;5091724;28;20031;-80
2023/02/05 10:41:05;;;;;;;;;;;;;;;3.25;50.79;100071.69;5092007;28;20032;-80
2023/02/05 10:43:44;;;;;;;5.60;4.20;;;;;;;3.33;51.06;100077.16;5091760;28;19912;-80
2023/02/05 10:46:13;;;;;;;5.67;4.70;;;;;;;3.12;49.38;100059.59;5091509;28;20024;-80
2023/02/05 10:48:39;;;;;;;5.07;4.40;;;;;;;3.30;50.28;100077.38;5090346;28;20024;-80
2023/02/05 10:51:15;;;;;;;5.77;4.60;;;;;;;3.21;50.36;100073.72;5094899;28;20032;-79
2023/02/05 10:53:41;;;;;;;7.40;6.03;;;;;;;3.25;50.48;100080.34;5098211;28;20020;-80
2023/02/05 10:56:07;;;;;;;6.43;5.63;;;;;;;3.34;50.50;100079.66;5098381;28;20466;-80
2023/02/05 10:58:42;;;;;;;6.93;4.57;;;;;;;3.23;49.92;100084.03;5098455;28;20586;-80
2023/02/05 11:01:14;;;;;;;5.93;4.30;;;;;;;3.08;49.18;100026.03;5098915;28;20144;-80
2023/02/05 11:04:05;;;;;;;7.40;4.90;;;;;;;2.90;48.46;100017.81;5098174;28;20027;-80
2023/02/05 11:06:36;;;;;;;6.13;5.37;;;;;;;2.93;48.79;100014.97;5097856;28;20480;-80
2023/02/05 11:09:22;;;;;;;6.30;4.18;;;;;;;3.49;49.58;100095.91;5097400;28;20027;-80
2023/02/05 11:11:51;;;;;;;5.87;4.23;;;;;;;3.69;48.85;100081.28;5098561;28;20083;-79
2023/02/05 11:14:27;;;;;;;5.37;3.80;;;;;;;3.44;47.52;100051.88;5099559;28;20035;-80
2023/02/05 11:16:52;;;;;;;4.50;4.10;;;;;;;3.38;48.36;100047.13;5099964;28;20012;-80
2023/02/05 11:19:24;;;;;;;4.17;3.73;;;;;;;3.85;47.15;100088.75;5099731;28;20031;-80
2023/02/05 11:21:58;;;;;;;5.03;4.57;;;;;;;3.97;47.73;100103.47;5098985;28;20105;-80
2023/02/05 11:24:34;;;;;;;4.83;4.20;;;;;;;3.62;47.50;100041.75;5100307;28;20025;-80
2023/02/05 11:27:27;;;;;;;4.10;3.70;;;;;;;3.88;46.16;100086.72;5101475;28;20024;-80
2023/02/05 11:29:53;;;;;;;;;;;;;;;3.70;46.08;100083.75;5102166;28;20024;-80
2023/02/05 11:32:40;;;;;;;4.80;3.37;;;;;;;3.61;47.17;100044.50;5102157;28;19914;-80
2023/02/05 11:35:18;;;;;;;5.63;4.30;;;;;;;4.08;46.77;100095.59;5101282;28;20040;-80
2023/02/05 11:37:45;;;;;;;5.03;3.57;;;;;;;3.62;46.61;100026.09;5102142;28;20036;-80
2023/02/05 11:40:32;;;;;;;5.73;4.00;;;;;;;4.12;43.97;100078.72;5097913;28;20144;-80
2023/02/05 11:43:22;;;;;;;7.27;4.07;;;;;;;3.95;45.93;100087.91;5096540;28;20032;-80
2023/02/05 11:45:51;;;;;;;4.77;4.27;;;;;;;3.91;46.06;100067.38;5089543;28;20482;-80
2023/02/05 11:48:31;;;;;;;6.13;4.50;;;;;;;4.10;46.46;100086.69;5097815;28;20077;-80
2023/02/05 11:50:57;;;;;;;3.90;3.50;;;;;;;3.53;45.76;100012.94;5096781;28;20103;-80
2023/02/05 11:53:24;;;;;;;4.13;3.63;;;;;;;3.85;45.58;100062.63;5097856;28;20027;-80
2023/02/05 11:55:55;;;;;;;4.50;3.80;;;;;;;3.52;44.17;100027.78;5097904;28;20031;-80